Time;durP1;ratioP1;P1;durP2;ratioP2;P2;SDS_P1;SDS_P2;PMS_P1;PMS_P2;Temp;Humidity;BMP_temperature;BMP_pressure;BME280_temperature;BME280_humidity;BME280_pressure;Samples;Min_cycle;Max_cycle;Signal;HPM_P1;HPM_P2
2022/10/08 00:01:06;;;;;;;;;;;15.00;99.90;;;;;;5087864;28;19924;-84
2022/10/08 00:03:33;;;;;;;;;;;14.90;99.90;;;;;;5089613;28;20414;-84
2022/10/08 00:05:58;;;;;;;;;;;14.80;99.90;;;;;;5084775;28;19916;-84
2022/10/08 00:08:25;;;;;;;;;;;14.70;99.90;;;;;;5074564;28;19917;-84
2022/10/08 00:11:02;;;;;;;;;;;14.70;99.90;;;;;;5084977;28;19912;-84
2022/10/08 00:13:39;;;;;;;;;;;14.80;99.90;;;;;;5081679;28;19912;-84
2022/10/08 00:16:09;;;;;;;;;;;14.80;99.90;;;;;;5075258;28;19946;-82
2022/10/08 00:18:34;;;;;;;;;;;14.80;99.90;;;;;;5087061;28;19934;-83
2022/10/08 00:21:08;;;;;;;;;;;14.80;99.90;;;;;;5080371;28;20349;-83
2022/10/08 00:23:34;;;;;;;;;;;14.70;99.90;;;;;;5083075;28;19920;-83
2022/10/08 00:26:06;;;;;;;;;;;14.80;99.90;;;;;;5084115;28;19950;-83
2022/10/08 00:28:35;;;;;;;;;;;14.70;99.90;;;;;;5082276;28;19947;-83
2022/10/08 00:31:06;;;;;;;;;;;14.70;99.90;;;;;;5083316;28;19919;-83
2022/10/08 00:33:33;;;;;;;;;;;14.70;99.90;;;;;;5082735;28;20529;-83
2022/10/08 00:36:02;;;;;;;;;;;14.70;99.90;;;;;;5081332;28;20434;-84
2022/10/08 00:38:27;;;;;;;;;;;14.70;99.90;;;;;;5084731;28;19912;-83
2022/10/08 00:40:53;;;;;;;;;;;14.60;99.90;;;;;;5082438;28;19954;-84
2022/10/08 00:43:35;;;;;;;;;;;14.50;99.90;;;;;;5072892;28;19916;-84
2022/10/08 00:46:01;;;;;;;;;;;14.50;99.90;;;;;;5091597;28;19971;-83
2022/10/08 00:48:27;;;;;;;;;;;14.50;99.90;;;;;;5078461;28;19940;-83
2022/10/08 00:50:52;;;;;;;;;;;14.60;99.90;;;;;;5088538;28;20420;-83
2022/10/08 00:53:18;;;;;;;;;;;14.60;99.90;;;;;;5088121;28;19934;-83
2022/10/08 00:55:43;;;;;;;;;;;14.50;99.90;;;;;;5088949;28;19919;-83
2022/10/08 00:58:20;;;;;;;;;;;14.50;99.90;;;;;;5089178;28;19919;-85
2022/10/08 01:00:47;;;;;;;;;;;14.50;99.90;;;;;;5075552;28;19920;-84
2022/10/08 01:03:12;;;;;;;;;;;14.40;99.90;;;;;;5087292;28;19936;-83
2022/10/08 01:05:56;;;;;;;;;;;14.40;99.90;;;;;;5084129;28;20292;-83
2022/10/08 01:08:42;;;;;;;;;;;14.40;99.90;;;;;;5089144;28;19942;-83
2022/10/08 01:11:10;;;;;;;;;;;14.30;99.90;;;;;;5073749;28;19977;-82
2022/10/08 01:13:36;;;;;;;;;;;14.30;99.90;;;;;;5081977;28;19916;-83
2022/10/08 01:16:09;;;;;;;;;;;14.30;99.90;;;;;;5078463;28;19965;-83
2022/10/08 01:18:50;;;;;;;;;;;14.30;99.90;;;;;;5088311;28;20027;-82
2022/10/08 01:21:16;;;;;;;;;;;14.30;99.90;;;;;;5082654;28;20533;-83
2022/10/08 01:23:44;;;;;;;;;;;14.30;99.90;;;;;;5082202;28;19924;-83
2022/10/08 01:26:48;;;;;;;;;;;14.30;99.90;;;;;;5080882;28;20005;-83
2022/10/08 01:29:17;;;;;;;;;;;14.30;99.90;;;;;;5063013;28;19960;-84
2022/10/08 01:31:45;;;;;;;;;;;14.20;99.90;;;;;;5065123;28;20062;-82
2022/10/08 01:34:21;;;;;;;;;;;14.20;99.90;;;;;;5077070;28;20650;-82
2022/10/08 01:36:50;;;;;;;;;;;14.20;99.90;;;;;;5080847;28;19993;-82
2022/10/08 01:39:17;;;;;;;;;;;14.30;99.90;;;;;;5076311;28;19924;-82
2022/10/08 01:41:45;;;;;;;;;;;14.10;99.90;;;;;;5085634;28;19920;-82
2022/10/08 01:44:19;;;;;;;;;;;14.10;99.90;;;;;;5087727;28;20458;-81
2022/10/08 01:46:45;;;;;;;;;;;14.20;99.90;;;;;;5090331;28;19919;-82
2022/10/08 01:49:13;;;;;;;;;;;14.10;99.90;;;;;;5080601;28;19959;-85
2022/10/08 01:51:52;;;;;;;;;;;14.10;99.90;;;;;;5077431;28;20021;-85
2022/10/08 01:54:19;;;;;;;;;;;14.10;99.90;;;;;;5078038;28;19945;-85
2022/10/08 01:56:46;;;;;;;;;;;14.00;99.90;;;;;;5082558;28;20474;-85
2022/10/08 01:59:17;;;;;;;;;;;13.90;99.90;;;;;;5087979;28;19923;-86
2022/10/08 02:01:48;;;;;;;;;;;13.90;99.90;;;;;;5079881;28;19935;-83
2022/10/08 02:04:33;;;;;;;;;;;13.90;99.90;;;;;;5083266;28;19927;-84
2022/10/08 02:07:00;;;;;;;;;;;13.90;99.90;;;;;;5075819;28;19920;-83
2022/10/08 02:09:26;;;;;;;;;;;13.90;99.90;;;;;;5081807;28;19948;-84
2022/10/08 02:11:52;;;;;;;;;;;13.90;99.90;;;;;;5087270;28;20435;-83
2022/10/08 02:14:18;;;;;;;;;;;13.80;99.90;;;;;;5084685;28;19950;-84
2022/10/08 02:16:50;;;;;;;;;;;13.80;99.90;;;;;;5083823;28;20003;-84
2022/10/08 02:19:24;;;;;;;;;;;13.70;99.90;;;;;;5078119;28;19919;-84
2022/10/08 02:21:52;;;;;;;;;;;13.80;99.90;;;;;;5078966;28;19916;-83
2022/10/08 02:24:20;;;;;;;;;;;13.70;99.90;;;;;;5079181;28;19997;-82
2022/10/08 02:26:47;;;;;;;;;;;13.70;99.90;;;;;;5078726;28;19934;-82
2022/10/08 02:29:26;;;;;;;;;;;13.60;99.90;;;;;;5084297;28;19927;-85
2022/10/08 02:31:56;;;;;;;;;;;13.60;99.90;;;;;;5078126;28;19912;-85
2022/10/08 02:34:22;;;;;;;;;;;13.60;99.90;;;;;;5083262;28;19916;-85
2022/10/08 02:36:50;;;;;;;;;;;13.60;99.90;;;;;;5079379;28;19958;-84
2022/10/08 02:39:17;;;;;;;;;;;13.60;99.90;;;;;;5091638;28;19916;-84
2022/10/08 02:41:46;;;;;;;;;;;13.60;99.90;;;;;;5083051;28;19958;-84
2022/10/08 02:44:14;;;;;;;;;;;13.60;99.90;;;;;;5086260;28;19920;-84
2022/10/08 02:46:41;;;;;;;;;;;13.60;99.90;;;;;;5089857;28;19916;-84
2022/10/08 02:49:10;;;;;;;;;;;13.60;99.90;;;;;;5081456;28;19993;-84
2022/10/08 02:51:38;;;;;;;;;;;13.60;99.90;;;;;;5090560;28;20534;-83
2022/10/08 02:54:04;;;;;;;;;;;13.60;99.90;;;;;;5089144;28;19922;-84
2022/10/08 02:56:40;;;;;;;;;;;13.50;99.90;;;;;;5089845;28;19916;-84
2022/10/08 02:59:06;;;;;;;;;;;13.40;99.90;;;;;;5088353;28;20726;-83
2022/10/08 03:01:36;;;;;;;;;;;13.40;99.90;;;;;;5088607;28;19970;-83
2022/10/08 03:04:22;;;;;;;;;;;13.40;99.90;;;;;;5079384;28;19915;-83
2022/10/08 03:06:48;;;;;;;;;;;13.40;99.90;;;;;;5094119;28;19916;-84
2022/10/08 03:09:15;;;;;;;;;;;13.30;99.90;;;;;;5084815;28;19973;-84
2022/10/08 03:11:41;;;;;;;;;;;13.40;99.90;;;;;;5084312;28;20443;-83
2022/10/08 03:14:08;;;;;;;;;;;13.40;99.90;;;;;;5078714;28;19916;-82
2022/10/08 03:16:36;;;;;;;;;;;13.40;99.90;;;;;;5075592;28;19922;-83
2022/10/08 03:19:02;;;;;;;;;;;13.30;99.90;;;;;;5079893;28;19928;-83
2022/10/08 03:21:29;;;;;;;;;;;13.30;99.90;;;;;;5084040;28;19913;-84
2022/10/08 03:23:54;;;;;;;;;;;13.30;99.90;;;;;;5078458;28;19951;-83
2022/10/08 03:26:20;;;;;;;;;;;13.30;99.90;;;;;;5072253;28;19944;-85
2022/10/08 03:28:45;;;;;;;;;;;13.30;99.90;;;;;;5084417;28;20547;-84
2022/10/08 03:31:11;;;;;;;;;;;13.20;99.90;;;;;;5078470;28;19955;-84
2022/10/08 03:33:36;;;;;;;;;;;13.20;99.90;;;;;;5080442;28;20018;-83
2022/10/08 03:36:02;;;;;;;;;;;13.20;99.90;;;;;;5075490;28;19927;-82
2022/10/08 03:38:28;;;;;;;;;;;13.10;99.90;;;;;;5085811;28;19916;-84
2022/10/08 03:40:54;;;;;;;;;;;13.20;99.90;;;;;;5077927;28;19968;-82
2022/10/08 03:43:20;;;;;;;;;;;13.20;99.90;;;;;;5077232;28;19916;-83
2022/10/08 03:45:52;;;;;;;;;;;13.20;99.90;;;;;;5083231;28;19992;-85
2022/10/08 03:48:19;;;;;;;;;;;13.10;99.90;;;;;;5081697;28;19920;-84
2022/10/08 03:50:50;;;;;;;;;;;13.10;99.90;;;;;;5082304;28;19923;-84
2022/10/08 03:53:16;;;;;;;;;;;13.10;99.90;;;;;;5083197;28;20011;-84
2022/10/08 03:55:42;;;;;;;;;;;13.10;99.90;;;;;;5082275;28;20011;-86
2022/10/08 03:58:07;;;;;;;;;;;13.10;99.90;;;;;;5079849;28;20389;-85
2022/10/08 04:00:33;;;;;;;;;;;13.10;99.90;;;;;;5079842;28;19927;-84
2022/10/08 04:02:58;;;;;;;;;;;13.10;99.90;;;;;;5091557;28;19924;-85
2022/10/08 04:05:24;;;;;;;;;;;13.10;99.90;;;;;;5077937;28;20374;-84
2022/10/08 04:07:49;;;;;;;;;;;13.00;99.90;;;;;;5084680;28;19916;-85
2022/10/08 04:10:15;;;;;;;;;;;13.00;99.90;;;;;;5089384;28;20660;-85
2022/10/08 04:12:41;;;;;;;;;;;12.90;99.90;;;;;;5071441;28;19916;-83
2022/10/08 04:15:07;;;;;;;;;;;12.90;99.90;;;;;;5068970;28;19917;-84
2022/10/08 04:17:32;;;;;;;;;;;12.80;99.90;;;;;;5071586;28;20023;-84
2022/10/08 04:19:58;;;;;;;;;;;12.80;99.90;;;;;;5070166;28;20015;-84
2022/10/08 04:22:24;;;;;;;;;;;12.80;99.90;;;;;;5073417;28;20359;-84
2022/10/08 04:24:49;;;;;;;;;;;12.80;99.90;;;;;;5071040;28;19924;-83
2022/10/08 04:27:15;;;;;;;;;;;12.90;99.90;;;;;;5074786;28;19917;-84
2022/10/08 04:29:40;;;;;;;;;;;12.90;99.90;;;;;;5070928;28;19916;-83
2022/10/08 04:32:06;;;;;;;;;;;12.80;99.90;;;;;;5077577;28;20003;-84
2022/10/08 04:34:31;;;;;;;;;;;12.70;99.90;;;;;;5083005;28;19911;-84
2022/10/08 04:36:57;;;;;;;;;;;12.80;99.90;;;;;;5074617;28;19994;-84
2022/10/08 04:39:22;;;;;;;;;;;12.70;99.90;;;;;;5073678;28;19973;-83
2022/10/08 04:41:48;;;;;;;;;;;12.80;99.90;;;;;;5084293;28;19967;-82
2022/10/08 04:44:13;;;;;;;;;;;12.70;99.90;;;;;;5074029;28;19920;-84
2022/10/08 04:46:39;;;;;;;;;;;12.70;99.90;;;;;;5079761;28;20241;-86
2022/10/08 04:49:05;;;;;;;;;;;12.70;99.90;;;;;;5073979;28;19923;-85
2022/10/08 04:51:30;;;;;;;;;;;12.70;99.90;;;;;;5073731;28;20454;-85
2022/10/08 04:53:56;;;;;;;;;;;12.80;99.90;;;;;;5068667;28;19917;-86
2022/10/08 04:56:26;;;;;;;;;;;12.80;99.90;;;;;;5067293;28;19938;-84
2022/10/08 04:58:53;;;;;;;;;;;12.80;99.90;;;;;;5070402;28;19916;-84
2022/10/08 05:01:20;;;;;;;;;;;12.80;99.90;;;;;;5069661;28;19935;-85
2022/10/08 05:03:47;;;;;;;;;;;12.80;99.90;;;;;;5075762;28;19924;-84
2022/10/08 05:06:14;;;;;;;;;;;12.80;99.90;;;;;;5079964;28;19912;-84
2022/10/08 05:08:40;;;;;;;;;;;12.80;99.90;;;;;;5071513;28;19912;-84
2022/10/08 05:11:06;;;;;;;;;;;12.80;99.90;;;;;;5078273;28;19923;-84
2022/10/08 05:13:31;;;;;;;;;;;12.80;99.90;;;;;;5075341;28;20481;-86
2022/10/08 05:16:01;;;;;;;;;;;12.80;99.90;;;;;;5071825;28;19974;-88
2022/10/08 05:18:27;;;;;;;;;;;12.80;99.90;;;;;;5074720;28;20006;-87
2022/10/08 05:20:52;;;;;;;;;;;12.80;99.90;;;;;;5076036;28;19998;-87
2022/10/08 05:23:18;;;;;;;;;;;12.90;99.90;;;;;;5083119;28;20615;-87
2022/10/08 05:25:43;;;;;;;;;;;13.00;99.90;;;;;;5095669;28;20014;-83
2022/10/08 05:28:09;;;;;;;;;;;13.00;99.90;;;;;;5076693;28;19923;-84
2022/10/08 05:30:34;;;;;;;;;;;13.10;99.90;;;;;;5073203;28;20378;-84
2022/10/08 05:33:00;;;;;;;;;;;13.10;99.90;;;;;;5085272;28;19916;-85
2022/10/08 05:35:26;;;;;;;;;;;13.20;99.90;;;;;;5077243;28;19922;-83
2022/10/08 05:37:51;;;;;;;;;;;13.20;99.90;;;;;;5083236;28;19912;-83
2022/10/08 05:40:17;;;;;;;;;;;13.10;99.90;;;;;;5072906;28;20463;-84
2022/10/08 05:42:42;;;;;;;;;;;13.10;99.90;;;;;;5080562;28;19943;-83
2022/10/08 05:45:08;;;;;;;;;;;13.10;99.90;;;;;;5077120;28;19920;-84
2022/10/08 05:47:34;;;;;;;;;;;13.00;99.90;;;;;;5078495;28;19922;-83
2022/10/08 05:49:59;;;;;;;;;;;13.00;99.90;;;;;;5078163;28;20012;-84
2022/10/08 05:52:27;;;;;;;;;;;13.00;99.90;;;;;;5086040;28;19999;-87
2022/10/08 05:54:53;;;;;;;;;;;12.90;99.90;;;;;;5076925;28;20554;-87
2022/10/08 05:57:18;;;;;;;;;;;12.80;99.90;;;;;;5086675;28;19958;-87
2022/10/08 06:00:14;;;;;;;;;;;12.80;99.90;;;;;;5078225;28;19958;-88
2022/10/08 06:02:39;;;;;;;;;;;12.70;99.90;;;;;;5075489;28;19967;-90
2022/10/08 06:05:05;;;;;;;;;;;12.70;99.90;;;;;;5081441;28;19951;-89
2022/10/08 06:07:30;;;;;;;;;;;12.80;99.90;;;;;;5071976;28;20692;-89
2022/10/08 06:09:56;;;;;;;;;;;12.80;99.90;;;;;;5072889;28;20020;-88
2022/10/08 06:12:22;;;;;;;;;;;12.80;99.90;;;;;;5080651;28;19912;-91
2022/10/08 06:14:47;;;;;;;;;;;12.90;99.90;;;;;;5068337;28;19951;-82
2022/10/08 06:17:13;;;;;;;;;;;13.00;99.90;;;;;;5069051;28;20359;-80
2022/10/08 06:19:38;;;;;;;;;;;13.10;99.90;;;;;;5069957;28;19982;-81
2022/10/08 06:22:04;;;;;;;;;;;13.10;99.90;;;;;;5072421;28;19959;-87
2022/10/08 06:24:29;;;;;;;;;;;13.10;99.90;;;;;;5078087;28;20040;-88
2022/10/08 06:26:55;;;;;;;;;;;13.20;99.90;;;;;;5076494;28;20399;-88
2022/10/08 06:29:21;;;;;;;;;;;13.20;99.90;;;;;;5080243;28;19920;-84
2022/10/08 06:31:47;;;;;;;;;;;13.20;99.90;;;;;;5073897;28;20744;-84
2022/10/08 06:34:12;;;;;;;;;;;13.20;99.90;;;;;;5077406;28;19958;-84
2022/10/08 06:36:38;;;;;;;;;;;13.30;99.90;;;;;;5074217;28;19919;-82
2022/10/08 06:39:10;;;;;;;;;;;13.20;99.90;;;;;;5077538;28;19951;-84
2022/10/08 06:41:35;;;;;;;;;;;13.30;99.90;;;;;;5073621;28;20035;-84
2022/10/08 06:44:05;;;;;;;;;;;13.30;99.90;;;;;;5079146;28;20019;-84
2022/10/08 06:46:31;;;;;;;;;;;13.30;99.90;;;;;;5077984;28;19986;-88
2022/10/08 06:48:58;;;;;;;;;;;13.40;99.90;;;;;;5081953;28;19912;-86
2022/10/08 06:51:23;;;;;;;;;;;13.40;99.90;;;;;;5085091;28;19946;-86
2022/10/08 06:53:53;;;;;;;;;;;13.40;99.90;;;;;;5082444;28;20466;-86
2022/10/08 06:56:19;;;;;;;;;;;13.40;99.90;;;;;;5080891;28;19916;-86
2022/10/08 06:58:46;;;;;;;;;;;13.50;99.90;;;;;;5076888;28;19917;-84
2022/10/08 07:01:16;;;;;;;;;;;13.60;99.90;;;;;;5081723;28;19916;-84
2022/10/08 07:03:42;;;;;;;;;;;13.60;99.90;;;;;;5078269;28;19928;-85
2022/10/08 07:06:09;;;;;;;;;;;13.70;99.90;;;;;;5076875;28;19916;-84
2022/10/08 07:08:35;;;;;;;;;;;13.80;99.90;;;;;;5071970;28;20505;-84
2022/10/08 07:11:07;;;;;;;;;;;13.90;99.90;;;;;;5070490;28;19912;-85
2022/10/08 07:13:33;;;;;;;;;;;14.00;99.90;;;;;;5077998;28;20625;-85
2022/10/08 07:16:00;;;;;;;;;;;14.00;99.90;;;;;;5071844;28;19981;-85
2022/10/08 07:18:25;;;;;;;;;;;14.20;99.90;;;;;;5074499;28;19916;-83
2022/10/08 07:20:55;;;;;;;;;;;14.30;99.90;;;;;;5074842;28;19948;-85
2022/10/08 07:23:20;;;;;;;;;;;14.40;99.90;;;;;;5076728;28;19918;-86
2022/10/08 07:26:02;;;;;;;;;;;14.50;99.90;;;;;;5074431;28;19920;-84
2022/10/08 07:28:29;;;;;;;;;;;14.50;99.90;;;;;;5082384;28;19916;-85
2022/10/08 07:30:54;;;;;;;;;;;14.60;99.90;;;;;;5076249;28;19923;-85
2022/10/08 07:33:20;;;;;;;;;;;14.70;99.90;;;;;;5071277;28;20003;-84
2022/10/08 07:35:46;;;;;;;;;;;14.80;99.90;;;;;;5069631;28;20019;-84
2022/10/08 07:38:11;;;;;;;;;;;14.70;99.90;;;;;;5076944;28;19970;-85
2022/10/08 07:40:37;;;;;;;;;;;14.90;99.90;;;;;;5076050;28;19927;-84
2022/10/08 07:43:03;;;;;;;;;;;15.10;99.90;;;;;;5086121;28;19927;-82
2022/10/08 07:45:30;;;;;;;;;;;15.20;99.90;;;;;;5081128;28;19920;-88
2022/10/08 07:47:55;;;;;;;;;;;15.30;99.90;;;;;;5074624;28;19924;-84
2022/10/08 07:50:22;;;;;;;;;;;15.50;99.90;;;;;;5083773;28;19928;-85
2022/10/08 07:52:47;;;;;;;;;;;16.00;99.90;;;;;;5074825;28;19920;-84
2022/10/08 07:55:13;;;;;;;;;;;16.30;99.90;;;;;;5081953;28;19919;-84
2022/10/08 07:57:39;;;;;;;;;;;16.50;99.90;;;;;;5070784;28;19916;-87
2022/10/08 08:00:05;;;;;;;;;;;16.50;99.90;;;;;;5073164;28;19917;-88
2022/10/08 08:02:30;;;;;;;;;;;16.40;99.90;;;;;;5068703;28;19928;-85
2022/10/08 08:04:56;;;;;;;;;;;16.20;99.90;;;;;;5075580;28;20657;-84
2022/10/08 08:07:21;;;;;;;;;;;16.00;99.90;;;;;;5076128;28;19956;-83
2022/10/08 08:09:47;;;;;;;;;;;16.00;99.90;;;;;;5078461;28;20320;-87
2022/10/08 08:12:13;;;;;;;;;;;16.00;99.90;;;;;;5075043;28;19927;-89
2022/10/08 08:14:38;;;;;;;;;;;16.00;99.90;;;;;;5077251;28;20560;-89
2022/10/08 08:17:04;;;;;;;;;;;15.90;99.90;;;;;;5077057;28;20015;-88
2022/10/08 08:19:29;;;;;;;;;;;15.90;99.90;;;;;;5072402;28;19916;-90
2022/10/08 08:21:55;;;;;;;;;;;15.80;99.90;;;;;;5088157;28;20373;-88
2022/10/08 08:24:22;;;;;;;;;;;16.00;99.90;;;;;;5078153;28;19921;-90
2022/10/08 08:26:48;;;;;;;;;;;16.30;99.90;;;;;;5077102;28;19923;-90
2022/10/08 08:29:15;;;;;;;;;;;16.30;99.90;;;;;;5078740;28;19912;-90
2022/10/08 08:31:42;;;;;;;;;;;16.40;99.90;;;;;;5091387;28;19998;-92
2022/10/08 08:34:09;;;;;;;;;;;16.70;99.90;;;;;;5085100;28;20386;-90
2022/10/08 08:36:36;;;;;;;;;;;16.80;99.90;;;;;;5081910;28;19908;-89
2022/10/08 08:39:02;;;;;;;;;;;16.90;99.90;;;;;;5079498;28;19912;-89
2022/10/08 08:41:34;;;;;;;;;;;16.90;99.90;;;;;;5072138;28;19916;-89
2022/10/08 08:44:08;;;;;;;;;;;17.10;99.90;;;;;;5079244;28;19920;-90
2022/10/08 08:46:35;;;;;;;;;;;16.90;99.90;;;;;;5074095;28;19912;-90
2022/10/08 08:49:04;;;;;;;;;;;16.80;99.90;;;;;;5075129;28;19937;-91
2022/10/08 08:51:30;;;;;;;;;;;16.90;99.90;;;;;;5080847;28;20367;-89
2022/10/08 08:53:56;;;;;;;;;;;17.10;99.90;;;;;;5085447;28;19916;-90
2022/10/08 08:56:23;;;;;;;;;;;17.00;99.90;;;;;;5078942;28;20717;-90
2022/10/08 08:59:07;;;;;;;;;;;17.20;99.90;;;;;;5094806;28;20454;-89
2022/10/08 09:01:35;;;;;;;;;;;17.20;99.90;;;;;;5082073;28;19923;-89
2022/10/08 09:04:08;;;;;;;;;;;17.60;99.90;;;;;;5080239;28;19928;-87
2022/10/08 09:06:35;;;;;;;;;;;17.70;99.90;;;;;;5074193;28;19960;-86
2022/10/08 09:09:00;;;;;;;;;;;18.10;99.90;;;;;;5074324;28;19978;-87
2022/10/08 09:11:27;;;;;;;;;;;18.20;99.90;;;;;;5076325;28;19951;-87
2022/10/08 09:13:54;;;;;;;;;;;18.20;99.90;;;;;;5086103;28;19920;-87
2022/10/08 09:16:20;;;;;;;;;;;18.20;99.90;;;;;;5079993;28;19977;-87
2022/10/08 09:18:46;;;;;;;;;;;18.60;99.90;;;;;;5083263;28;19917;-87
2022/10/08 09:21:12;;;;;;;;;;;18.60;99.90;;;;;;5087343;28;19948;-88
2022/10/08 09:23:38;;;;;;;;;;;18.80;99.90;;;;;;5077922;28;20395;-87
2022/10/08 09:26:03;;;;;;;;;;;19.10;99.90;;;;;;5084313;28;19920;-89
2022/10/08 09:28:36;;;;;;;;;;;19.20;99.90;;;;;;5077019;28;20422;-90
2022/10/08 09:31:10;;;;;;;;;;;19.30;99.90;;;;;;5075628;28;20434;-90
2022/10/08 09:33:38;;;;;;;;;;;19.20;99.90;;;;;;5078312;28;20381;-90
2022/10/08 09:36:03;;;;;;;;;;;19.60;99.90;;;;;;5077028;28;19927;-88
2022/10/08 09:38:32;;;;;;;;;;;19.90;99.90;;;;;;5084857;28;19916;-89
2022/10/08 09:41:15;;;;;;;;;;;19.90;99.90;;;;;;5075723;28;19917;-90
2022/10/08 09:43:41;;;;;;;;;;;20.20;99.90;;;;;;5078219;28;20408;-90
2022/10/08 09:46:10;;;;;;;;;;;20.30;99.90;;;;;;5077090;28;19950;-88
2022/10/08 09:48:36;;;;;;;;;;;20.50;99.90;;;;;;5071201;28;19913;-88
2022/10/08 09:51:11;;;;;;;;;;;20.50;99.90;;;;;;5091891;28;19916;-89
2022/10/08 09:53:41;;;;;;;;;;;20.50;99.90;;;;;;5087207;28;19912;-90
2022/10/08 09:56:08;;;;;;;;;;;20.70;99.90;;;;;;5097691;28;19915;-91
2022/10/08 09:58:37;;;;;;;;;;;20.80;99.90;;;;;;5074970;28;19920;-89
2022/10/08 10:01:04;;;;;;;;;;;21.20;99.90;;;;;;5072783;28;19924;-88
2022/10/08 10:03:30;;;;;;;;;;;21.00;99.90;;;;;;5081743;28;19912;-91
2022/10/08 10:05:58;;;;;;;;;;;21.40;99.90;;;;;;5083585;28;19942;-92
2022/10/08 10:08:47;;;;;;;;;;;21.10;99.90;;;;;;5082106;28;19923;-89
2022/10/08 10:11:40;;;;;;;;;;;20.70;99.90;;;;;;5085125;28;19916;-90
2022/10/08 10:14:12;;;;;;;;;;;20.80;99.90;;;;;;5083586;28;19912;-90
2022/10/08 10:16:40;;;;;;;;;;;20.60;99.90;;;;;;5093184;28;20362;-90
2022/10/08 10:19:10;;;;;;;;;;;20.40;99.90;;;;;;5083675;28;19962;-88
2022/10/08 10:21:48;;;;;;;;;;;20.60;99.90;;;;;;5091400;28;19927;-88
2022/10/08 10:24:22;;;;;;;;;;;21.30;99.90;;;;;;5090438;28;19995;-94
2022/10/08 10:26:49;;;;;;;;;;;21.10;99.90;;;;;;5075490;28;19956;-87
2022/10/08 10:29:18;;;;;;;;;;;21.00;99.90;;;;;;5082451;28;20549;-89
2022/10/08 10:32:03;;;;;;;;;;;20.90;99.90;;;;;;5079105;28;19927;-86
2022/10/08 10:34:31;;;;;;;;;;;20.90;99.90;;;;;;5088074;28;19919;-85
2022/10/08 10:36:59;;;;;;;;;;;21.00;99.90;;;;;;5084360;28;19997;-89
2022/10/08 10:39:36;;;;;;;;;;;20.90;99.90;;;;;;5081015;28;19912;-88
2022/10/08 10:42:08;;;;;;;;;;;20.90;99.90;;;;;;5091107;28;20436;-88
2022/10/08 10:44:48;;;;;;;;;;;20.80;99.90;;;;;;5086992;28;19923;-89
2022/10/08 10:47:14;;;;;;;;;;;20.90;99.90;;;;;;5085327;28;19916;-86
2022/10/08 10:49:41;;;;;;;;;;;21.00;99.90;;;;;;5077398;28;19927;-86
2022/10/08 10:52:19;;;;;;;;;;;21.10;99.90;;;;;;5088992;28;19959;-86
2022/10/08 10:54:54;;;;;;;;;;;20.90;99.90;;;;;;5086936;28;20302;-89
2022/10/08 10:57:26;;;;;;;;;;;20.70;99.90;;;;;;5081486;28;20406;-88
2022/10/08 11:00:10;;;;;;;;;;;20.70;99.90;;;;;;5074326;28;19912;-87
2022/10/08 11:02:48;;;;;;;;;;;20.90;99.90;;;;;;5073987;28;20325;-86
2022/10/08 11:05:21;;;;;;;;;;;21.10;99.90;;;;;;5073327;28;19924;-84
2022/10/08 11:08:05;;;;;;;;;;;21.30;99.90;;;;;;5085241;28;19923;-85
2022/10/08 11:10:54;;;;;;;;;;;21.00;99.90;;;;;;5074235;28;20018;-86
2022/10/08 11:13:30;;;;;;;;;;;21.00;99.90;;;;;;5084853;28;19919;-88
2022/10/08 11:16:05;;;;;;;;;;;21.10;99.90;;;;;;5077659;28;20473;-89
2022/10/08 11:18:39;;;;;;;;;;;21.20;99.90;;;;;;5076618;28;19916;-88
2022/10/08 11:21:24;;;;;;;;;;;21.40;99.90;;;;;;5080273;28;20777;-87
2022/10/08 11:24:07;;;;;;;;;;;21.40;99.90;;;;;;5083892;28;19966;-87
2022/10/08 11:26:52;;;;;;;;;;;21.30;99.90;;;;;;5078606;28;19926;-88
2022/10/08 11:29:20;;;;;;;;;;;21.10;99.90;;;;;;5077742;28;19912;-87
2022/10/08 11:31:47;;;;;;;;;;;21.00;99.90;;;;;;5082567;28;20672;-88
2022/10/08 11:34:19;;;;;;;;;;;20.90;99.90;;;;;;5077488;28;20269;-88
2022/10/08 11:37:00;;;;;;;;;;;21.10;99.90;;;;;;5081888;28;19923;-86
2022/10/08 11:39:29;;;;;;;;;;;20.90;99.90;;;;;;5080682;28;20321;-88
2022/10/08 11:41:58;;;;;;;;;;;20.70;99.90;;;;;;5088268;28;20445;-88
2022/10/08 11:44:25;;;;;;;;;;;20.60;99.90;;;;;;5075518;28;20737;-88
2022/10/08 11:46:51;;;;;;;;;;;20.60;99.90;;;;;;5079552;28;19969;-88
2022/10/08 11:49:19;;;;;;;;;;;20.60;99.90;;;;;;5090489;28;19912;-90
2022/10/08 11:51:45;;;;;;;;;;;20.80;99.90;;;;;;5086652;28;20002;-88
2022/10/08 11:54:11;;;;;;;;;;;20.80;99.90;;;;;;5077492;28;19920;-88
2022/10/08 11:57:00;;;;;;;;;;;20.70;99.90;;;;;;5069209;28;20327;-85
2022/10/08 11:59:26;;;;;;;;;;;20.70;99.90;;;;;;5072888;28;19938;-85
2022/10/08 12:01:54;;;;;;;;;;;20.90;99.90;;;;;;5069165;28;19921;-88
2022/10/08 12:04:33;;;;;;;;;;;20.90;99.90;;;;;;5075221;28;20841;-90
2022/10/08 12:07:04;;;;;;;;;;;20.80;99.90;;;;;;5075209;28;20007;-87
2022/10/08 12:09:50;;;;;;;;;;;20.90;99.90;;;;;;5073390;28;20576;-85
2022/10/08 12:12:16;;;;;;;;;;;20.90;99.90;;;;;;5081292;28;19916;-92
2022/10/08 12:14:45;;;;;;;;;;;20.90;99.90;;;;;;5074207;28;19923;-91
2022/10/08 12:17:11;;;;;;;;;;;21.10;99.90;;;;;;5075290;28;19923;-91
2022/10/08 12:19:36;;;;;;;;;;;21.00;99.90;;;;;;5079885;28;19920;-90
2022/10/08 12:22:23;;;;;;;;;;;21.00;99.90;;;;;;5080257;28;20470;-89
2022/10/08 12:24:52;;;;;;;;;;;21.10;99.90;;;;;;5085036;28;19924;-88
2022/10/08 12:27:22;;;;;;;;;;;21.00;99.90;;;;;;5074408;28;19916;-89
2022/10/08 12:29:52;;;;;;;;;;;21.20;99.90;;;;;;5068405;28;19970;-88
2022/10/08 12:32:18;;;;;;;;;;;21.20;99.90;;;;;;5077472;28;19938;-86
2022/10/08 12:34:43;;;;;;;;;;;21.20;99.90;;;;;;5072644;28;19983;-87
2022/10/08 12:37:22;;;;;;;;;;;21.30;99.90;;;;;;5073974;28;19946;-88
2022/10/08 12:39:48;;;;;;;;;;;21.30;99.90;;;;;;5073025;28;19916;-86
2022/10/08 12:42:19;;;;;;;;;;;21.40;99.90;;;;;;5078747;28;19924;-88
2022/10/08 12:44:45;;;;;;;;;;;21.60;99.90;;;;;;5088748;28;20015;-88
2022/10/08 12:47:29;;;;;;;;;;;21.60;99.40;;;;;;5078136;28;19987;-90
2022/10/08 12:50:14;;;;;;;;;;;21.80;99.00;;;;;;5087918;28;19912;-88
2022/10/08 12:52:40;;;;;;;;;;;22.10;99.30;;;;;;5076837;28;20406;-87
2022/10/08 12:55:12;;;;;;;;;;;22.40;98.70;;;;;;5090990;28;19912;-86
2022/10/08 12:57:39;;;;;;;;;;;22.50;98.00;;;;;;5078815;28;19943;-87
2022/10/08 13:00:06;;;;;;;;;;;22.70;97.70;;;;;;5082436;28;19916;-88
2022/10/08 13:02:56;;;;;;;;;;;22.90;98.90;;;;;;5075548;28;19924;-88
2022/10/08 13:05:52;;;;;;;;;;;22.60;98.60;;;;;;5076379;28;19971;-87
2022/10/08 13:08:29;;;;;;;;;;;22.30;98.30;;;;;;5080699;28;20477;-88
2022/10/08 13:10:56;;;;;;;;;;;22.40;98.50;;;;;;5072185;28;19920;-90
2022/10/08 13:14:03;;;;;;;;;;;22.30;99.70;;;;;;5070481;28;19916;-90
2022/10/08 13:16:43;;;;;;;;;;;22.30;98.40;;;;;;5074210;28;19916;-87
2022/10/08 13:19:50;;;;;;;;;;;22.20;97.80;;;;;;5070886;28;21406;-88
2022/10/08 13:22:24;;;;;;;;;;;22.30;99.00;;;;;;5074698;28;19945;-88
2022/10/08 13:28:18;;;;;;;;;;;22.80;98.90;;;;;;5021777;28;19917;-89
2022/10/08 13:31:04;;;;;;;;;;;22.70;97.80;;;;;;5073829;28;19965;-91
2022/10/08 13:33:35;;;;;;;;;;;22.90;97.80;;;;;;5071690;28;20580;-87
2022/10/08 13:36:01;;;;;;;;;;;22.90;96.70;;;;;;5070137;28;19996;-90
2022/10/08 13:38:29;;;;;;;;;;;23.00;97.00;;;;;;5071855;28;19922;-86
2022/10/08 13:40:57;;;;;;;;;;;22.90;97.50;;;;;;5071547;28;19920;-88
2022/10/08 13:43:24;;;;;;;;;;;22.90;98.60;;;;;;5068957;28;19917;-87
2022/10/08 13:45:50;;;;;;;;;;;22.50;99.10;;;;;;5072772;28;19956;-85
2022/10/08 13:48:15;;;;;;;;;;;22.10;99.90;;;;;;5079165;28;20009;-88
2022/10/08 13:50:42;;;;;;;;;;;21.30;99.90;;;;;;5081753;28;20022;-88
2022/10/08 13:53:08;;;;;;;;;;;20.70;99.90;;;;;;5075241;28;19989;-85
2022/10/08 13:55:36;;;;;;;;;;;20.40;99.90;;;;;;5075149;28;19927;-85
2022/10/08 13:58:04;;;;;;;;;;;20.20;99.90;;;;;;5077399;28;20126;-83
2022/10/08 14:00:44;;;;;;;;;;;20.30;99.90;;;;;;5077156;28;19923;-87
2022/10/08 14:03:10;;;;;;;;;;;20.50;99.90;;;;;;5076274;28;19924;-84
2022/10/08 14:05:39;;;;;;;;;;;20.50;99.90;;;;;;5079105;28;19927;-84
2022/10/08 14:08:19;;;;;;;;;;;20.70;99.90;;;;;;5078445;28;19995;-84
2022/10/08 14:10:45;;;;;;;;;;;20.70;99.90;;;;;;5077494;28;19948;-84
2022/10/08 14:13:12;;;;;;;;;;;20.80;99.90;;;;;;5084951;28;19958;-83
2022/10/08 14:15:37;;;;;;;;;;;20.90;99.90;;;;;;5079241;28;19916;-86
2022/10/08 14:18:22;;;;;;;;;;;;;;;;;;;;;
2022/10/08 14:24:22;;;;;;;;;;;21.00;99.90;;;;;;5064438;28;19923;-83
2022/10/08 14:26:48;;;;;;;;;;;20.90;99.90;;;;;;5075727;28;19917;-84
2022/10/08 14:29:13;;;;;;;;;;;20.90;99.90;;;;;;5075144;28;19923;-84
2022/10/08 14:31:39;;;;;;;;;;;20.90;99.90;;;;;;5079190;28;20377;-85
2022/10/08 14:34:46;;;;;;;;;;;21.00;99.90;;;;;;5077547;28;19999;-87
2022/10/08 14:37:14;;;;;;;;;;;20.80;99.90;;;;;;5062174;28;19925;-86
2022/10/08 14:40:00;;;;;;;;;;;20.70;99.90;;;;;;5048768;28;19923;-87